createdAt,value
2023-01-07T00:02:14.087Z,2.83
2023-01-07T00:04:43.443Z,3.00
2023-01-07T00:07:12.586Z,2.90
2023-01-07T00:09:44.489Z,3.17
2023-01-07T00:12:15.995Z,2.77
2023-01-07T00:14:47.684Z,2.80
2023-01-07T00:17:20.469Z,3.10
2023-01-07T00:19:57.844Z,2.43
2023-01-07T00:22:29.294Z,2.60
2023-01-07T00:25:06.934Z,3.70
2023-01-07T00:27:35.578Z,2.17
2023-01-07T00:30:05.418Z,2.90
2023-01-07T00:32:54.734Z,3.00
2023-01-07T00:35:24.337Z,2.93
2023-01-07T00:38:01.477Z,2.43
2023-01-07T00:40:32.111Z,2.80
2023-01-07T00:43:11.719Z,2.73
2023-01-07T00:45:44.763Z,2.40
2023-01-07T00:48:18.210Z,2.27
2023-01-07T00:50:49.657Z,3.27
2023-01-07T00:53:21.291Z,2.90
2023-01-07T00:55:52.025Z,3.47
2023-01-07T00:58:34.848Z,3.60
2023-01-07T01:01:05.084Z,3.17
2023-01-07T01:03:36.609Z,3.40
2023-01-07T01:06:10.188Z,3.60
2023-01-07T01:08:41.298Z,3.70
2023-01-07T01:11:20.955Z,3.43
2023-01-07T01:13:50.399Z,4.03
2023-01-07T01:16:36.923Z,3.60
2023-01-07T01:19:13.176Z,3.80
2023-01-07T01:21:44.364Z,3.50
2023-01-07T01:24:22.973Z,3.60
2023-01-07T01:26:54.285Z,3.63
2023-01-07T01:29:26.580Z,3.70
2023-01-07T01:31:55.672Z,4.07
2023-01-07T01:34:30.698Z,3.10
2023-01-07T01:37:07.232Z,4.17
2023-01-07T01:39:36.150Z,3.93
2023-01-07T01:42:06.321Z,3.30
2023-01-07T01:44:41.520Z,4.20
2023-01-07T01:47:24.015Z,3.97
2023-01-07T01:50:00.984Z,3.93
2023-01-07T01:52:48.463Z,3.90
2023-01-07T01:55:24.119Z,3.77
2023-01-07T01:57:59.325Z,4.20
2023-01-07T02:00:30.334Z,4.27
2023-01-07T02:03:07.989Z,3.60
2023-01-07T02:05:44.273Z,3.30
2023-01-07T02:08:15.285Z,3.17
2023-01-07T02:10:44.023Z,4.40
2023-01-07T02:13:30.570Z,3.63
2023-01-07T02:16:05.848Z,3.50
2023-01-07T02:18:50.594Z,3.77
2023-01-07T02:21:34.032Z,3.40
2023-01-07T02:24:30.264Z,2.93
2023-01-07T02:27:22.360Z,3.50
2023-01-07T02:30:28.163Z,3.40
2023-01-07T02:33:36.559Z,3.20
2023-01-07T02:36:44.565Z,3.30
2023-01-07T02:39:47.030Z,3.37
2023-01-07T02:42:35.363Z,3.40
2023-01-07T02:45:10.158Z,3.20
2023-01-07T02:47:47.519Z,3.10
2023-01-07T02:50:17.076Z,3.77
2023-01-07T02:53:03.927Z,3.77
2023-01-07T02:55:41.737Z,3.20
2023-01-07T02:58:23.749Z,3.50
2023-01-07T03:01:39.020Z,3.47
2023-01-07T03:04:38.424Z,3.53
2023-01-07T03:07:26.159Z,3.23
2023-01-07T03:10:03.132Z,3.37
2023-01-07T03:12:38.356Z,2.80
2023-01-07T03:15:15.547Z,3.60
2023-01-07T03:17:47.605Z,3.30
2023-01-07T03:20:17.796Z,3.27
2023-01-07T03:22:48.228Z,3.53
2023-01-07T03:25:23.410Z,3.30
2023-01-07T03:27:56.303Z,3.00
2023-01-07T03:30:27.051Z,3.63
2023-01-07T03:33:08.868Z,3.27
2023-01-07T03:35:39.680Z,3.63
2023-01-07T03:38:13.401Z,3.33
2023-01-07T03:40:46.091Z,3.70
2023-01-07T03:43:20.046Z,3.87
2023-01-07T03:45:51.349Z,3.40
2023-01-07T03:48:25.442Z,3.90
2023-01-07T03:50:57.654Z,3.77
2023-01-07T03:53:27.039Z,3.57
2023-01-07T03:55:59.691Z,3.30
2023-01-07T03:58:29.205Z,3.27
2023-01-07T04:01:01.198Z,3.93
2023-01-07T04:03:33.749Z,3.87
2023-01-07T04:06:03.062Z,3.97
2023-01-07T04:08:37.165Z,3.87
2023-01-07T04:11:09.956Z,3.40
2023-01-07T04:13:50.675Z,3.73
2023-01-07T04:16:20.341Z,3.57
2023-01-07T04:18:50.717Z,4.30
2023-01-07T04:21:30.172Z,3.70
2023-01-07T04:23:59.907Z,4.30
2023-01-07T04:26:36.052Z,4.30
2023-01-07T04:29:08.033Z,3.97
2023-01-07T04:31:36.869Z,4.43
2023-01-07T04:34:07.957Z,4.70
2023-01-07T04:36:44.361Z,4.20
2023-01-07T04:39:14.239Z,4.30
2023-01-07T04:41:51.673Z,4.33
2023-01-07T04:44:30.390Z,4.17
2023-01-07T04:47:01.174Z,4.63
2023-01-07T04:49:32.978Z,4.60
2023-01-07T04:52:02.182Z,4.17
2023-01-07T04:54:33.983Z,4.50
2023-01-07T04:57:09.377Z,3.73
2023-01-07T04:59:41.201Z,4.00
2023-01-07T05:02:10.027Z,3.60
2023-01-07T05:04:43.000Z,3.77
2023-01-07T05:07:13.075Z,4.20
2023-01-07T05:09:50.202Z,3.60
2023-01-07T05:12:26.421Z,3.87
2023-01-07T05:15:04.454Z,4.43
2023-01-07T05:17:38.680Z,3.87
2023-01-07T05:20:12.050Z,3.93
2023-01-07T05:22:41.956Z,3.97
2023-01-07T05:25:19.779Z,3.87
2023-01-07T05:28:00.635Z,4.00
2023-01-07T05:30:41.626Z,4.10
2023-01-07T05:33:12.566Z,4.00
2023-01-07T05:35:41.213Z,4.10
2023-01-07T05:38:10.351Z,3.73
2023-01-07T05:40:42.259Z,4.43
2023-01-07T05:43:16.024Z,4.10
2023-01-07T05:45:46.802Z,3.70
2023-01-07T05:48:16.568Z,4.07
2023-01-07T05:50:48.748Z,3.60
2023-01-07T05:53:19.751Z,3.77
2023-01-07T05:55:53.739Z,3.90
2023-01-07T05:58:28.385Z,4.10
2023-01-07T06:01:06.013Z,3.43
2023-01-07T06:03:35.892Z,3.90
2023-01-07T06:06:07.507Z,3.20
2023-01-07T06:08:37.741Z,3.60
2023-01-07T06:11:12.971Z,3.40
2023-01-07T06:13:43.715Z,3.47
2023-01-07T06:16:14.722Z,3.70
2023-01-07T06:18:43.478Z,3.73
2023-01-07T06:21:12.690Z,4.57
2023-01-07T06:23:43.528Z,3.63
2023-01-07T06:26:17.801Z,3.30
2023-01-07T06:28:54.643Z,3.90
2023-01-07T06:31:25.774Z,3.77
2023-01-07T06:33:54.282Z,3.73
2023-01-07T06:36:30.351Z,3.57
2023-01-07T06:39:02.996Z,3.20
2023-01-07T06:41:34.780Z,3.70
2023-01-07T06:44:13.707Z,3.30
2023-01-07T06:46:44.583Z,3.87
2023-01-07T06:49:16.125Z,4.10
2023-01-07T06:51:48.156Z,3.13
2023-01-07T06:54:24.143Z,3.37
2023-01-07T06:56:56.755Z,4.37
2023-01-07T06:59:39.763Z,3.50
2023-01-07T07:02:19.718Z,3.60
2023-01-07T07:04:50.762Z,2.90
2023-01-07T07:07:20.529Z,4.07
2023-01-07T07:09:50.907Z,3.80
2023-01-07T07:12:21.870Z,4.03
2023-01-07T07:14:56.559Z,3.80
2023-01-07T07:17:26.535Z,3.70
2023-01-07T07:19:55.080Z,4.33
2023-01-07T07:22:33.324Z,3.83
2023-01-07T07:25:04.844Z,4.03
2023-01-07T07:27:34.058Z,4.50
2023-01-07T07:30:11.312Z,4.97
2023-01-07T07:32:40.603Z,5.10
2023-01-07T07:35:10.070Z,5.97
2023-01-07T07:37:39.601Z,5.70
2023-01-07T07:40:10.246Z,5.83
2023-01-07T07:43:09.419Z,5.80
2023-01-07T07:45:33.486Z,5.93
2023-01-07T07:48:05.607Z,5.37
2023-01-07T07:50:36.935Z,6.00
2023-01-07T07:53:10.607Z,5.60
2023-01-07T07:55:42.297Z,5.43
2023-01-07T07:58:11.755Z,4.83
2023-01-07T08:00:42.647Z,5.60
2023-01-07T08:03:11.745Z,4.57
2023-01-07T08:05:50.296Z,4.97
2023-01-07T08:08:24.884Z,4.60
2023-01-07T08:10:56.382Z,5.40
2023-01-07T08:13:25.917Z,5.40
2023-01-07T08:15:57.028Z,5.20
2023-01-07T08:18:27.979Z,4.90
2023-01-07T08:20:58.784Z,5.10
2023-01-07T08:23:30.351Z,4.47
2023-01-07T08:26:07.920Z,4.37
2023-01-07T08:28:37.526Z,4.67
2023-01-07T08:31:21.990Z,4.60
2023-01-07T08:33:50.484Z,3.93
2023-01-07T08:36:23.427Z,5.13
2023-01-07T08:38:55.190Z,4.70
2023-01-07T08:41:25.938Z,4.53
2023-01-07T08:43:55.326Z,4.00
2023-01-07T08:46:31.452Z,4.43
2023-01-07T08:48:59.876Z,4.27
2023-01-07T08:51:36.953Z,4.43
2023-01-07T08:54:18.766Z,4.63
2023-01-07T08:56:51.528Z,4.40
2023-01-07T08:59:27.819Z,5.23
2023-01-07T09:02:14.777Z,4.60
2023-01-07T09:04:43.937Z,4.07
2023-01-07T09:07:16.062Z,3.87
2023-01-07T09:09:44.233Z,3.60
2023-01-07T09:12:21.318Z,3.70
2023-01-07T09:14:52.817Z,3.30
2023-01-07T09:17:26.340Z,3.33
2023-01-07T09:19:56.066Z,3.10
2023-01-07T09:22:25.433Z,3.10
2023-01-07T09:24:56.375Z,3.40
2023-01-07T09:27:27.097Z,3.40
2023-01-07T09:30:01.914Z,3.43
2023-01-07T09:32:38.601Z,3.20
2023-01-07T09:35:11.123Z,3.47
2023-01-07T09:37:44.410Z,3.90
2023-01-07T09:40:24.573Z,4.23
2023-01-07T09:43:04.707Z,4.50
2023-01-07T09:45:36.136Z,3.97
2023-01-07T09:48:15.831Z,3.73
2023-01-07T09:50:51.223Z,4.03
2023-01-07T09:53:25.590Z,3.90
2023-01-07T09:56:11.244Z,3.47
2023-01-07T09:58:49.185Z,3.10
2023-01-07T10:01:27.235Z,2.90
2023-01-07T10:04:24.517Z,2.83
2023-01-07T10:06:59.123Z,2.57
2023-01-07T10:09:35.913Z,1.83
2023-01-07T10:12:19.134Z,2.17
2023-01-07T10:15:14.051Z,2.23
2023-01-07T10:18:12.441Z,2.13
2023-01-07T10:20:47.586Z,1.70
2023-01-07T10:23:28.337Z,2.40
2023-01-07T10:25:58.981Z,2.40
2023-01-07T10:28:40.085Z,1.93
2023-01-07T10:31:17.983Z,2.30
2023-01-07T10:33:49.914Z,2.20
2023-01-07T10:36:24.769Z,2.30
2023-01-07T10:39:02.177Z,2.03
2023-01-07T10:41:40.794Z,2.00
2023-01-07T10:44:40.342Z,1.90
2023-01-07T10:47:18.828Z,2.13
2023-01-07T10:50:01.285Z,2.03
2023-01-07T10:52:46.547Z,2.67
2023-01-07T10:55:40.392Z,2.27
2023-01-07T10:58:15.069Z,2.20
2023-01-07T11:00:47.172Z,2.33
2023-01-07T11:03:21.238Z,2.20
2023-01-07T11:05:55.427Z,2.20
2023-01-07T11:08:33.940Z,2.20
2023-01-07T11:11:05.414Z,2.30
2023-01-07T11:13:37.716Z,2.80
2023-01-07T11:16:11.030Z,2.70
2023-01-07T11:18:46.103Z,2.27
2023-01-07T11:21:43.080Z,2.27
2023-01-07T11:24:36.859Z,2.70
2023-01-07T11:27:12.596Z,2.23
2023-01-07T11:29:48.235Z,2.90
2023-01-07T11:32:29.685Z,2.10
2023-01-07T11:35:01.002Z,2.40
2023-01-07T11:37:41.199Z,3.30
2023-01-07T11:40:37.603Z,2.97
2023-01-07T11:43:27.264Z,3.10
2023-01-07T11:46:19.241Z,3.27
2023-01-07T11:48:58.286Z,3.40
2023-01-07T11:51:26.969Z,2.70
2023-01-07T11:53:59.546Z,2.70
2023-01-07T11:56:33.675Z,2.40
2023-01-07T11:59:24.496Z,2.63
2023-01-07T12:02:03.285Z,1.90
2023-01-07T12:04:34.292Z,1.83
2023-01-07T12:07:04.088Z,2.43
2023-01-07T12:09:41.951Z,2.37
2023-01-07T12:15:25.019Z,4.53
2023-01-07T12:18:25.334Z,4.90
2023-01-07T12:21:23.404Z,4.40
2023-01-07T12:24:00.179Z,4.53
2023-01-07T12:26:38.252Z,4.30
2023-01-07T12:29:25.975Z,4.90
2023-01-07T12:32:15.472Z,4.90
2023-01-07T12:34:51.150Z,5.13
2023-01-07T12:37:30.381Z,5.60
2023-01-07T12:40:10.942Z,5.30
2023-01-07T12:42:47.019Z,4.73
2023-01-07T12:45:24.494Z,5.73
2023-01-07T12:48:08.117Z,4.80
2023-01-07T12:50:41.044Z,5.70
2023-01-07T12:53:17.758Z,5.63
2023-01-07T12:55:49.800Z,5.00
2023-01-07T12:58:36.612Z,5.37
2023-01-07T13:01:20.421Z,5.00
2023-01-07T13:04:00.398Z,5.60
2023-01-07T13:06:43.698Z,4.87
2023-01-07T13:09:31.189Z,5.10
2023-01-07T13:12:41.855Z,4.20
2023-01-07T13:15:30.125Z,4.27
2023-01-07T13:18:19.039Z,4.80
2023-01-07T13:21:02.574Z,4.47
2023-01-07T13:23:43.191Z,3.60
2023-01-07T13:26:23.214Z,3.90
2023-01-07T13:29:18.775Z,4.00
2023-01-07T13:32:07.278Z,3.33
2023-01-07T13:34:49.379Z,3.43
2023-01-07T13:37:39.245Z,3.77
2023-01-07T13:40:31.262Z,3.10
2023-01-07T13:43:13.901Z,3.47
2023-01-07T13:45:50.703Z,3.20
2023-01-07T13:48:32.985Z,2.80
2023-01-07T13:51:08.926Z,3.53
2023-01-07T13:53:53.555Z,2.90
2023-01-07T13:56:38.594Z,3.07
2023-01-07T13:59:30.620Z,3.17
2023-01-07T14:02:24.258Z,3.10
2023-01-07T14:05:24.392Z,3.17
2023-01-07T14:08:01.629Z,2.70
2023-01-07T14:10:40.689Z,2.40
2023-01-07T14:13:26.667Z,2.50
2023-01-07T14:16:11.068Z,3.23
2023-01-07T14:19:25.475Z,3.13
2023-01-07T14:22:08.976Z,3.13
2023-01-07T14:25:16.045Z,3.70
2023-01-07T14:28:34.553Z,4.17
2023-01-07T14:31:04.081Z,3.50
2023-01-07T14:33:38.201Z,6.33
2023-01-07T14:36:08.723Z,8.00
2023-01-07T14:39:04.781Z,7.20
2023-01-07T14:41:37.015Z,4.60
2023-01-07T14:44:35.638Z,4.57
2023-01-07T14:47:06.074Z,4.90
2023-01-07T14:50:11.218Z,3.40
2023-01-07T14:53:17.330Z,3.13
2023-01-07T14:56:19.476Z,3.33
2023-01-07T14:59:06.880Z,3.63
2023-01-07T15:02:02.132Z,3.40
2023-01-07T15:05:31.029Z,2.93
2023-01-07T15:08:20.102Z,4.20
2023-01-07T15:11:13.020Z,3.83
2023-01-07T15:14:06.590Z,3.90
2023-01-07T15:16:38.045Z,3.80
2023-01-07T15:19:24.800Z,3.70
2023-01-07T15:22:05.013Z,3.37
2023-01-07T15:24:41.723Z,4.27
2023-01-07T15:27:21.276Z,5.13
2023-01-07T15:30:01.071Z,5.27
2023-01-07T15:32:41.405Z,5.10
2023-01-07T15:35:28.051Z,5.60
2023-01-07T15:37:57.269Z,4.50
2023-01-07T15:40:28.173Z,4.47
2023-01-07T15:43:03.551Z,4.87
2023-01-07T15:45:44.168Z,5.03
2023-01-07T15:48:21.078Z,5.33
2023-01-07T15:50:51.306Z,6.20
2023-01-07T15:53:23.340Z,6.20
2023-01-07T15:55:55.875Z,6.23
2023-01-07T15:58:35.928Z,4.73
2023-01-07T16:03:55.956Z,5.60
2023-01-07T16:06:45.727Z,7.43
2023-01-07T16:09:27.387Z,10.30
2023-01-07T16:11:58.094Z,10.37
2023-01-07T16:14:28.701Z,9.67
2023-01-07T16:17:21.375Z,9.70
2023-01-07T16:19:52.353Z,8.97
2023-01-07T16:22:26.244Z,7.97
2023-01-07T16:25:04.188Z,8.30
2023-01-07T16:27:35.503Z,8.63
2023-01-07T16:30:18.266Z,8.17
2023-01-07T16:32:47.169Z,9.27
2023-01-07T16:35:25.577Z,10.10
2023-01-07T16:38:00.819Z,10.10
2023-01-07T16:40:36.372Z,10.67
2023-01-07T16:43:06.876Z,9.57
2023-01-07T16:45:40.692Z,10.00
2023-01-07T16:48:19.708Z,9.60
2023-01-07T16:50:51.338Z,10.20
2023-01-07T16:53:35.201Z,8.90
2023-01-07T16:56:25.398Z,9.27
2023-01-07T16:59:08.106Z,10.63
2023-01-07T17:01:40.357Z,10.87
2023-01-07T17:04:10.965Z,10.10
2023-01-07T17:06:43.967Z,9.70
2023-01-07T17:09:22.484Z,10.07
2023-01-07T17:11:52.978Z,10.20
2023-01-07T17:14:53.765Z,10.23
2023-01-07T17:17:29.116Z,11.00
2023-01-07T17:20:22.838Z,10.57
2023-01-07T17:22:52.840Z,10.40
2023-01-07T17:25:37.613Z,9.70
2023-01-07T17:28:10.503Z,9.70
2023-01-07T17:30:42.113Z,10.70
2023-01-07T17:33:21.359Z,10.03
2023-01-07T17:35:54.690Z,11.53
2023-01-07T17:38:31.227Z,10.93
2023-01-07T17:41:40.619Z,10.80
2023-01-07T17:44:11.566Z,11.03
2023-01-07T17:46:40.142Z,10.70
2023-01-07T17:49:14.661Z,10.13
2023-01-07T17:51:54.478Z,9.40
2023-01-07T17:54:39.371Z,10.37
2023-01-07T17:57:26.501Z,10.10
2023-01-07T17:59:55.208Z,9.10
2023-01-07T18:02:28.491Z,10.00
2023-01-07T18:05:10.730Z,9.93
2023-01-07T18:07:42.730Z,9.63
2023-01-07T18:10:16.057Z,8.90
2023-01-07T18:12:49.576Z,9.50
2023-01-07T18:15:21.467Z,10.33
2023-01-07T18:17:50.078Z,10.17
2023-01-07T18:20:31.009Z,9.17
2023-01-07T18:23:05.357Z,10.50
2023-01-07T18:25:34.205Z,8.60
2023-01-07T18:28:06.595Z,10.97
2023-01-07T18:30:36.877Z,11.10
2023-01-07T18:33:07.245Z,10.77
2023-01-07T18:35:37.629Z,11.63
2023-01-07T18:38:17.656Z,12.80
2023-01-07T18:40:49.297Z,12.00
2023-01-07T18:43:32.634Z,12.10
2023-01-07T18:46:02.159Z,12.70
2023-01-07T18:48:30.793Z,12.47
2023-01-07T18:51:01.340Z,13.33
2023-01-07T18:53:32.030Z,14.03
2023-01-07T18:56:07.854Z,13.30
2023-01-07T18:58:58.555Z,12.80
2023-01-07T19:01:27.506Z,14.50
2023-01-07T19:03:57.671Z,14.40
2023-01-07T19:06:28.352Z,13.50
2023-01-07T19:09:05.970Z,14.53
2023-01-07T19:11:42.310Z,13.67
2023-01-07T19:14:24.239Z,15.20
2023-01-07T19:16:57.764Z,15.07
2023-01-07T19:19:47.955Z,14.10
2023-01-07T19:22:20.795Z,14.57
2023-01-07T19:24:52.102Z,14.83
2023-01-07T19:27:21.250Z,14.43
2023-01-07T19:30:01.381Z,13.80
2023-01-07T19:32:33.769Z,15.03
2023-01-07T19:35:02.364Z,14.90
2023-01-07T19:37:33.708Z,14.40
2023-01-07T19:40:06.109Z,15.30
2023-01-07T19:42:34.814Z,16.33
2023-01-07T19:45:12.215Z,15.00
2023-01-07T19:47:46.150Z,14.43
2023-01-07T19:50:28.877Z,14.37
2023-01-07T19:53:03.069Z,15.27
2023-01-07T19:55:35.377Z,17.03
2023-01-07T19:58:15.061Z,16.10
2023-01-07T20:01:07.556Z,16.47
2023-01-07T20:03:43.575Z,16.63
2023-01-07T20:06:26.636Z,17.33
2023-01-07T20:09:12.472Z,16.97
2023-01-07T20:11:43.799Z,16.90
2023-01-07T20:14:21.965Z,15.87
2023-01-07T20:16:57.428Z,17.10
2023-01-07T20:19:30.378Z,17.30
2023-01-07T20:22:01.711Z,17.57
2023-01-07T20:24:33.034Z,17.63
2023-01-07T20:27:16.081Z,17.80
2023-01-07T20:29:47.809Z,18.10
2023-01-07T20:32:19.788Z,18.20
2023-01-07T20:34:50.140Z,18.10
2023-01-07T20:37:22.047Z,17.43
2023-01-07T20:39:51.774Z,18.90
2023-01-07T20:42:20.276Z,17.83
2023-01-07T20:45:01.061Z,18.30
2023-01-07T20:47:36.373Z,17.50
2023-01-07T20:50:11.160Z,17.53
2023-01-07T20:52:42.833Z,17.43
2023-01-07T20:55:14.698Z,18.60
2023-01-07T20:57:45.949Z,16.87
2023-01-07T21:00:26.552Z,18.80
2023-01-07T21:02:56.602Z,20.40
2023-01-07T21:05:26.848Z,19.97
2023-01-07T21:07:57.408Z,20.60
2023-01-07T21:10:29.026Z,19.27
2023-01-07T21:13:00.561Z,20.20
2023-01-07T21:15:32.100Z,21.30
2023-01-07T21:18:02.695Z,20.13
2023-01-07T21:20:33.495Z,20.37
2023-01-07T21:23:04.423Z,19.60
2023-01-07T21:25:33.937Z,19.77
2023-01-07T21:28:03.573Z,22.67
2023-01-07T21:30:41.980Z,20.93
2023-01-07T21:33:20.453Z,20.17
2023-01-07T21:35:49.682Z,19.90
2023-01-07T21:38:25.637Z,20.97
2023-01-07T21:40:57.483Z,21.00
2023-01-07T21:43:29.481Z,21.13
2023-01-07T21:46:01.097Z,24.00
2023-01-07T21:48:39.989Z,22.87
2023-01-07T21:51:18.587Z,23.67
2023-01-07T21:53:48.685Z,23.60
2023-01-07T21:56:23.575Z,24.80
2023-01-07T21:58:52.252Z,23.63
2023-01-07T22:01:28.574Z,25.50
2023-01-07T22:04:06.787Z,25.83
2023-01-07T22:06:40.954Z,25.13
2023-01-07T22:09:18.952Z,26.73
2023-01-07T22:11:48.494Z,24.60
2023-01-07T22:14:22.786Z,28.30
2023-01-07T22:16:52.040Z,27.40
2023-01-07T22:19:28.632Z,26.80
2023-01-07T22:21:58.465Z,28.20
2023-01-07T22:24:27.523Z,27.00
2023-01-07T22:26:59.183Z,26.90
2023-01-07T22:29:27.532Z,26.80
2023-01-07T22:31:56.203Z,28.47
2023-01-07T22:34:32.778Z,29.20
2023-01-07T22:37:06.535Z,29.50
2023-01-07T22:39:40.730Z,28.73
2023-01-07T22:42:14.807Z,29.70
2023-01-07T22:44:45.756Z,30.10
2023-01-07T22:47:19.675Z,30.33
2023-01-07T22:49:59.296Z,29.33
2023-01-07T22:52:31.092Z,30.50
2023-01-07T22:55:04.127Z,29.90
2023-01-07T22:57:42.162Z,29.07
2023-01-07T23:00:17.981Z,28.00
2023-01-07T23:02:50.403Z,30.20
2023-01-07T23:05:24.168Z,30.23
2023-01-07T23:07:57.582Z,27.93
2023-01-07T23:10:28.850Z,29.20
2023-01-07T23:12:58.420Z,30.00
2023-01-07T23:15:27.618Z,29.07
2023-01-07T23:17:59.368Z,28.87
2023-01-07T23:20:36.146Z,29.57
2023-01-07T23:23:17.964Z,28.03
2023-01-07T23:25:49.768Z,29.00
2023-01-07T23:28:24.141Z,27.63
2023-01-07T23:30:54.241Z,27.87
2023-01-07T23:33:26.107Z,28.90
2023-01-07T23:36:06.228Z,27.80
2023-01-07T23:38:38.710Z,29.17
2023-01-07T23:41:13.385Z,27.77
2023-01-07T23:43:44.890Z,27.37
2023-01-07T23:46:13.494Z,28.93
2023-01-07T23:48:42.984Z,30.30
2023-01-07T23:51:20.479Z,30.30
2023-01-07T23:54:00.130Z,30.77
2023-01-07T23:56:29.461Z,27.70
2023-01-07T23:59:03.165Z,27.20
